Time;durP1;ratioP1;P1;durP2;ratioP2;P2;SDS_P1;SDS_P2;PMS_P1;PMS_P2;Temp;Humidity;BMP_temperature;BMP_pressure;BME280_temperature;BME280_humidity;BME280_pressure;Samples;Min_cycle;Max_cycle;Signal;HPM_P1;HPM_P2
2023/07/17 00:00:17;;;;;;;9.23;1.60;;;16.50;99.90;;;;;;4989716;28;20415;-92
2023/07/17 00:02:43;;;;;;;9.77;1.45;;;16.50;99.90;;;;;;4989328;28;20966;-91
2023/07/17 00:05:10;;;;;;;9.90;1.45;;;16.50;99.90;;;;;;4990479;28;20467;-92
2023/07/17 00:07:37;;;;;;;8.05;1.38;;;16.60;99.90;;;;;;4988625;28;20816;-91
2023/07/17 00:10:06;;;;;;;7.95;1.45;;;16.60;99.90;;;;;;4990479;28;20427;-92
2023/07/17 00:12:32;;;;;;;7.13;1.52;;;16.60;99.90;;;;;;4987710;28;20515;-92
2023/07/17 00:14:58;;;;;;;7.45;1.60;;;16.70;99.90;;;;;;4990418;28;20997;-92
2023/07/17 00:17:24;;;;;;;8.75;1.50;;;16.70;99.90;;;;;;4988988;28;20773;-90
2023/07/17 00:19:57;;;;;;;8.98;1.50;;;16.70;99.90;;;;;;5005485;28;20568;-92
2023/07/17 00:22:23;;;;;;;9.03;1.50;;;16.80;99.90;;;;;;4990358;28;20431;-92
2023/07/17 00:24:51;;;;;;;7.55;1.50;;;17.10;99.90;;;;;;4988050;28;20409;-91
2023/07/17 00:27:16;;;;;;;9.65;1.63;;;17.20;99.90;;;;;;4990424;28;20452;-91
2023/07/17 00:29:44;;;;;;;8.80;1.35;;;17.10;99.90;;;;;;4987893;28;20416;-91
2023/07/17 00:32:13;;;;;;;8.93;1.77;;;16.90;99.90;;;;;;4991838;28;20409;-92
2023/07/17 00:34:40;;;;;;;9.02;1.40;;;16.90;99.90;;;;;;4992042;28;20839;-90
2023/07/17 00:37:05;;;;;;;8.20;1.50;;;16.90;99.90;;;;;;4993233;28;20404;-92
2023/07/17 00:39:31;;;;;;;7.67;1.30;;;16.90;99.90;;;;;;4993984;28;20423;-90
2023/07/17 00:41:57;;;;;;;9.77;1.65;;;16.90;99.90;;;;;;4991340;28;20404;-90
2023/07/17 00:44:23;;;;;;;7.72;1.40;;;17.30;99.90;;;;;;4993959;28;20865;-92
2023/07/17 00:46:52;;;;;;;7.37;1.70;;;16.90;99.90;;;;;;4990885;28;20551;-90
2023/07/17 00:49:19;;;;;;;9.77;1.95;;;16.90;99.90;;;;;;4993269;28;20509;-90
2023/07/17 00:51:45;;;;;;;11.20;1.77;;;17.20;99.90;;;;;;4991255;28;20519;-92
2023/07/17 00:54:14;;;;;;;7.20;1.67;;;16.90;99.90;;;;;;4991315;28;20425;-91
2023/07/17 00:56:42;;;;;;;7.65;1.73;;;16.70;99.90;;;;;;4992031;28;20833;-91
2023/07/17 00:59:08;;;;;;;7.30;1.88;;;16.90;99.90;;;;;;4990491;28;20555;-91
2023/07/17 01:01:34;;;;;;;9.10;1.70;;;16.80;99.90;;;;;;4993145;28;20409;-90
2023/07/17 01:04:04;;;;;;;7.50;1.60;;;16.60;99.90;;;;;;4990998;28;20532;-93
2023/07/17 01:06:30;;;;;;;7.93;1.60;;;16.80;99.90;;;;;;4994339;28;20494;-91
2023/07/17 01:08:57;;;;;;;8.25;1.75;;;16.80;99.90;;;;;;4990745;28;20431;-91
2023/07/17 01:11:23;;;;;;;8.43;1.53;;;17.00;99.90;;;;;;4992782;28;20409;-90
2023/07/17 01:13:50;;;;;;;6.00;1.45;;;16.80;99.90;;;;;;4992039;28;20440;-92
2023/07/17 01:16:16;;;;;;;7.78;1.77;;;16.70;99.90;;;;;;4991687;28;20455;-91
2023/07/17 01:18:42;;;;;;;8.63;1.50;;;17.10;99.90;;;;;;4992717;28;20441;-90
2023/07/17 01:21:11;;;;;;;8.80;1.67;;;16.70;99.90;;;;;;4990662;28;20432;-90
2023/07/17 01:23:37;;;;;;;11.43;1.93;;;16.90;99.90;;;;;;4992812;28;20408;-92
2023/07/17 01:26:13;;;;;;;9.52;2.10;;;16.60;99.90;;;;;;4990456;28;20413;-92
2023/07/17 01:28:39;;;;;;;6.38;1.52;;;16.50;99.90;;;;;;4993379;28;20845;-93
2023/07/17 01:31:05;;;;;;;7.78;1.83;;;16.50;99.90;;;;;;4991445;28;20493;-91
2023/07/17 01:33:31;;;;;;;7.05;1.85;;;16.50;99.90;;;;;;4991446;28;20512;-90
2023/07/17 01:35:59;;;;;;;9.63;1.95;;;16.60;99.90;;;;;;4992703;28;20448;-92
2023/07/17 01:38:24;;;;;;;8.27;1.73;;;16.30;99.90;;;;;;4990402;28;20436;-91
2023/07/17 01:40:51;;;;;;;9.00;1.83;;;16.30;99.90;;;;;;4992902;28;20448;-92
2023/07/17 01:43:17;;;;;;;7.38;1.63;;;16.10;99.90;;;;;;4989205;28;20776;-90
2023/07/17 01:45:43;;;;;;;6.90;1.80;;;16.40;99.90;;;;;;4992541;28;20413;-91
2023/07/17 01:48:09;;;;;;;10.35;2.00;;;16.50;99.90;;;;;;4989834;28;20414;-91
2023/07/17 01:50:35;;;;;;;8.13;2.20;;;16.10;99.90;;;;;;4991475;28;20476;-90
2023/07/17 01:53:01;;;;;;;9.10;2.15;;;16.70;99.90;;;;;;4991605;28;20503;-90
2023/07/17 01:55:27;;;;;;;8.75;2.00;;;16.50;99.90;;;;;;4990004;28;20433;-90
2023/07/17 01:57:57;;;;;;;8.20;1.93;;;15.90;99.90;;;;;;4992126;28;20463;-90
2023/07/17 02:00:23;;;;;;;8.23;2.28;;;16.30;99.90;;;;;;4989304;28;20417;-90
2023/07/17 02:02:49;;;;;;;7.57;1.95;;;15.70;99.90;;;;;;4991996;28;20498;-90
2023/07/17 02:05:14;;;;;;;7.90;1.57;;;15.70;99.90;;;;;;4989777;28;20413;-90
2023/07/17 02:07:40;;;;;;;6.22;1.73;;;15.70;99.90;;;;;;4991191;28;20413;-90
2023/07/17 02:10:07;;;;;;;8.00;1.77;;;16.10;99.90;;;;;;4991062;28;20427;-91
2023/07/17 02:12:33;;;;;;;8.25;1.75;;;15.60;99.90;;;;;;4990249;28;20412;-90
2023/07/17 02:14:58;;;;;;;7.75;1.98;;;16.00;99.90;;;;;;4991531;28;20428;-89
2023/07/17 02:17:24;;;;;;;10.13;2.08;;;15.60;99.90;;;;;;4978803;28;20416;-89
2023/07/17 02:19:50;;;;;;;9.53;1.97;;;15.90;99.90;;;;;;4971973;28;20943;-90
2023/07/17 02:22:16;;;;;;;9.50;2.10;;;15.50;99.90;;;;;;4969425;28;20413;-90
2023/07/17 02:24:41;;;;;;;8.47;2.23;;;15.80;99.90;;;;;;4972027;28;20421;-91
2023/07/17 02:27:07;;;;;;;8.38;2.42;;;15.50;99.90;;;;;;4970050;28;20465;-91
2023/07/17 02:29:33;;;;;;;7.77;2.27;;;15.80;99.90;;;;;;4970964;28;20482;-91
2023/07/17 02:31:58;;;;;;;7.78;2.25;;;15.80;99.90;;;;;;4971329;28;20497;-91
2023/07/17 02:34:24;;;;;;;8.15;2.42;;;15.80;99.90;;;;;;4969466;28;20782;-91
2023/07/17 02:36:51;;;;;;;10.30;1.90;;;15.40;99.90;;;;;;4971711;28;20444;-90
2023/07/17 02:39:17;;;;;;;11.25;2.90;;;15.40;99.90;;;;;;4969276;28;20493;-91
2023/07/17 02:41:43;;;;;;;7.17;2.03;;;15.30;99.90;;;;;;4971111;28;20509;-90
2023/07/17 02:44:08;;;;;;;9.32;2.60;;;15.30;99.90;;;;;;4969126;28;20923;-90
2023/07/17 02:46:34;;;;;;;7.97;2.10;;;15.30;99.90;;;;;;4970722;28;20422;-89
2023/07/17 02:49:00;;;;;;;8.27;2.42;;;15.50;99.90;;;;;;4970668;28;20402;-91
2023/07/17 02:51:25;;;;;;;10.03;2.60;;;15.50;99.90;;;;;;4969695;28;20465;-90
2023/07/17 02:53:51;;;;;;;10.65;2.38;;;15.30;99.90;;;;;;4971414;28;20485;-90
2023/07/17 02:56:17;;;;;;;8.37;2.20;;;15.70;99.90;;;;;;4968979;28;20414;-90
2023/07/17 02:58:43;;;;;;;11.38;2.40;;;15.30;99.90;;;;;;4971340;28;20523;-89
2023/07/17 03:01:10;;;;;;;9.75;2.53;;;15.60;99.90;;;;;;4968728;28;21155;-91
2023/07/17 03:03:37;;;;;;;17.17;2.80;;;15.30;99.90;;;;;;4971271;28;20413;-90
2023/07/17 03:06:04;;;;;;;9.52;2.42;;;15.50;99.90;;;;;;4969973;28;20450;-90
2023/07/17 03:08:29;;;;;;;10.40;2.60;;;15.20;99.90;;;;;;4970643;28;20430;-92
2023/07/17 03:10:55;;;;;;;10.37;2.60;;;15.60;99.90;;;;;;4971229;28;20406;-92
2023/07/17 03:13:21;;;;;;;9.00;2.70;;;15.30;99.90;;;;;;4969090;28;20465;-91
2023/07/17 03:15:49;;;;;;;11.37;2.90;;;15.10;99.90;;;;;;4971093;28;20444;-90
2023/07/17 03:18:15;;;;;;;8.18;2.80;;;15.80;99.90;;;;;;4969038;28;20458;-90
2023/07/17 03:20:44;;;;;;;10.43;3.10;;;15.10;99.90;;;;;;4970696;28;21015;-90
2023/07/17 03:23:10;;;;;;;9.70;2.70;;;15.20;99.90;;;;;;4969265;28;20414;-91
2023/07/17 03:25:36;;;;;;;13.25;3.42;;;15.40;99.90;;;;;;4970527;28;20414;-89
2023/07/17 03:28:02;;;;;;;10.47;3.20;;;15.00;99.90;;;;;;4971127;28;20913;-90
2023/07/17 03:30:28;;;;;;;15.68;3.60;;;14.80;99.90;;;;;;4969028;28;20494;-92
2023/07/17 03:32:54;;;;;;;12.32;3.17;;;15.00;99.90;;;;;;4971160;28;20472;-90
2023/07/17 03:35:19;;;;;;;12.53;3.03;;;15.10;99.90;;;;;;4968494;28;20418;-90
2023/07/17 03:37:45;;;;;;;13.60;3.58;;;14.80;99.90;;;;;;4970974;28;20532;-91
2023/07/17 03:40:11;;;;;;;11.95;3.10;;;15.00;99.90;;;;;;4968585;28;20410;-91
2023/07/17 03:42:37;;;;;;;9.83;2.93;;;14.70;99.90;;;;;;4970784;28;20928;-91
2023/07/17 03:45:04;;;;;;;12.50;3.75;;;14.60;99.90;;;;;;4970093;28;20477;-91
2023/07/17 03:47:30;;;;;;;10.10;3.05;;;14.60;99.90;;;;;;4969755;28;20418;-90
2023/07/17 03:49:56;;;;;;;13.57;3.40;;;14.60;99.90;;;;;;4970557;28;20835;-90
2023/07/17 03:52:22;;;;;;;13.67;3.10;;;15.10;99.90;;;;;;4968332;28;20410;-89
2023/07/17 03:54:48;;;;;;;10.57;2.85;;;15.00;99.90;;;;;;4970443;28;20504;-91
2023/07/17 03:57:14;;;;;;;12.70;3.40;;;14.50;99.90;;;;;;4968862;28;20437;-90
2023/07/17 03:59:49;;;;;;;15.00;3.77;;;14.50;99.90;;;;;;4970790;28;20446;-90
2023/07/17 04:02:15;;;;;;;13.98;3.90;;;14.50;99.90;;;;;;4969035;28;20421;-92
2023/07/17 04:04:41;;;;;;;16.63;4.23;;;14.40;99.90;;;;;;4979562;28;20788;-90
2023/07/17 04:07:07;;;;;;;15.63;4.00;;;14.40;99.90;;;;;;4992054;28;20504;-90
2023/07/17 04:09:32;;;;;;;15.77;4.00;;;14.70;99.90;;;;;;4991796;28;20424;-91
2023/07/17 04:11:58;;;;;;;14.63;3.90;;;14.60;99.90;;;;;;4994454;28;20776;-91
2023/07/17 04:14:23;;;;;;;14.95;4.20;;;14.60;99.90;;;;;;4991384;28;20455;-92
2023/07/17 04:16:49;;;;;;;17.30;4.37;;;14.70;99.90;;;;;;4993933;28;20517;-89
2023/07/17 04:19:15;;;;;;;17.42;4.30;;;14.80;99.90;;;;;;4991260;28;20427;-92
2023/07/17 04:21:40;;;;;;;18.13;4.87;;;15.00;99.90;;;;;;4993773;28;20413;-91
2023/07/17 04:24:06;;;;;;;16.58;4.00;;;14.90;99.90;;;;;;4992965;28;20467;-90
2023/07/17 04:26:32;;;;;;;17.67;4.87;;;14.90;99.90;;;;;;4992404;28;20420;-90
2023/07/17 04:28:58;;;;;;;15.13;4.23;;;15.00;99.90;;;;;;5009547;28;20416;-90
2023/07/17 04:31:23;;;;;;;16.67;4.43;;;15.10;99.90;;;;;;4990999;28;20469;-91
2023/07/17 04:33:49;;;;;;;16.30;4.10;;;15.10;99.90;;;;;;4993900;28;20443;-90
2023/07/17 04:36:14;;;;;;;17.25;4.80;;;15.60;99.90;;;;;;4990893;28;20412;-92
2023/07/17 04:38:40;;;;;;;14.53;4.43;;;15.70;99.90;;;;;;4993499;28;20503;-91
2023/07/17 04:41:06;;;;;;;22.40;4.75;;;15.50;99.90;;;;;;4991671;28;20429;-91
2023/07/17 04:43:33;;;;;;;14.67;3.73;;;15.20;99.90;;;;;;4992572;28;20417;-90
2023/07/17 04:45:59;;;;;;;14.85;4.00;;;15.60;99.90;;;;;;4993260;28;20611;-91
2023/07/17 04:48:25;;;;;;;17.35;4.43;;;15.90;99.90;;;;;;4991226;28;20484;-91
2023/07/17 04:50:52;;;;;;;16.83;4.20;;;16.20;99.90;;;;;;4993634;28;20411;-90
2023/07/17 04:53:18;;;;;;;14.53;3.73;;;16.30;99.90;;;;;;4990735;28;20530;-92
2023/07/17 04:55:44;;;;;;;14.97;4.00;;;16.40;99.90;;;;;;4993690;28;20472;-91
2023/07/17 04:58:10;;;;;;;18.15;4.10;;;16.10;99.90;;;;;;4991481;28;20412;-90
2023/07/17 05:00:35;;;;;;;15.87;4.40;;;16.50;99.90;;;;;;4985987;28;20919;-93
2023/07/17 05:03:04;;;;;;;15.90;4.27;;;16.30;99.90;;;;;;4990088;28;20515;-95
2023/07/17 05:05:29;;;;;;;15.67;4.03;;;16.50;99.90;;;;;;4991417;28;20912;-92
2023/07/17 05:07:55;;;;;;;16.15;4.35;;;16.60;99.90;;;;;;4993189;28;20495;-92
2023/07/17 05:10:21;;;;;;;15.73;4.60;;;16.70;99.90;;;;;;4991063;28;20432;-91
2023/07/17 05:12:46;;;;;;;15.63;4.22;;;17.10;99.90;;;;;;4984929;28;20448;-91
2023/07/17 05:15:14;;;;;;;16.23;4.00;;;17.30;99.90;;;;;;4973918;28;20434;-94
2023/07/17 05:17:39;;;;;;;16.23;3.70;;;17.30;99.90;;;;;;4973142;28;20410;-94
2023/07/17 05:20:07;;;;;;;14.13;4.25;;;16.80;99.90;;;;;;4971793;28;20940;-93
2023/07/17 05:22:32;;;;;;;15.25;4.13;;;17.10;99.90;;;;;;4972792;28;20430;-92
2023/07/17 05:24:59;;;;;;;12.00;4.10;;;17.30;99.90;;;;;;4972772;28;20442;-91
2023/07/17 05:27:25;;;;;;;14.43;4.18;;;17.40;99.90;;;;;;4972480;28;20414;-94
2023/07/17 05:29:50;;;;;;;16.38;4.50;;;17.60;99.90;;;;;;4975277;28;20413;-92
2023/07/17 05:32:16;;;;;;;15.17;4.50;;;17.90;99.90;;;;;;4972449;28;20411;-93
2023/07/17 05:34:42;;;;;;;15.73;4.85;;;18.00;99.90;;;;;;4973333;28;20487;-92
2023/07/17 05:37:08;;;;;;;16.40;4.87;;;17.80;99.90;;;;;;4971344;28;20917;-93
2023/07/17 05:39:34;;;;;;;15.55;4.82;;;18.00;99.90;;;;;;4973405;28;20414;-89
2023/07/17 05:41:59;;;;;;;14.60;4.20;;;18.40;99.90;;;;;;4971152;28;20419;-93
2023/07/17 05:44:44;;;;;;;13.27;4.63;;;18.00;99.90;;;;;;4975550;28;20425;-92
2023/07/17 05:47:15;;;;;;;18.02;4.65;;;18.00;99.90;;;;;;4981077;28;20406;-94
2023/07/17 05:49:43;;;;;;;16.70;4.63;;;18.20;99.90;;;;;;4971320;28;20509;-95
2023/07/17 05:52:12;;;;;;;15.80;5.07;;;17.80;99.90;;;;;;4974707;28;20516;-92
2023/07/17 05:54:40;;;;;;;15.23;4.87;;;17.90;99.90;;;;;;4973255;28;20525;-93
2023/07/17 05:57:06;;;;;;;13.00;5.40;;;17.70;99.90;;;;;;4976224;28;20445;-94
2023/07/17 05:59:32;;;;;;;14.07;4.88;;;17.60;99.90;;;;;;4973175;28;20473;-95
2023/07/17 06:01:57;;;;;;;15.90;5.05;;;17.90;99.90;;;;;;4974117;28;20422;-95
2023/07/17 06:04:23;;;;;;;16.80;4.90;;;17.60;99.90;;;;;;4974150;28;20475;-93
2023/07/17 06:06:49;;;;;;;16.90;5.20;;;17.70;99.90;;;;;;4973628;28;20839;-93
2023/07/17 06:09:15;;;;;;;18.23;5.87;;;17.90;99.90;;;;;;4971351;28;20403;-92
2023/07/17 06:11:40;;;;;;;15.38;5.20;;;18.10;99.90;;;;;;4972723;28;20422;-93
2023/07/17 06:14:06;;;;;;;12.77;4.97;;;18.40;99.90;;;;;;4973939;28;20517;-95
2023/07/17 06:16:32;;;;;;;14.73;5.40;;;18.60;99.90;;;;;;4975959;28;20421;-93
2023/07/17 06:18:58;;;;;;;17.05;5.38;;;18.80;99.90;;;;;;4978678;28;20406;-93
2023/07/17 06:21:26;;;;;;;12.60;4.97;;;19.90;99.90;;;;;;4975952;28;20414;-94
2023/07/17 06:23:52;;;;;;;15.05;5.07;;;19.20;99.90;;;;;;4979765;28;20464;-96
2023/07/17 06:26:18;;;;;;;15.50;5.50;;;19.80;99.90;;;;;;4972256;28;20547;-92
2023/07/17 06:28:55;;;;;;;14.00;5.13;;;19.10;99.90;;;;;;4976090;28;20414;-93
2023/07/17 06:36:50;;;;;;;23.17;7.63;;;17.50;99.90;;;;;;5022278;23;20450;-94
2023/07/17 06:39:50;;;;;;;;;;;;;;;;;;;;;
2023/07/17 06:43:03;;;;;;;21.55;7.57;;;16.50;99.90;;;;;;4975344;28;20471;-94
2023/07/17 06:45:47;;;;;;;23.30;8.50;;;16.40;99.90;;;;;;4985119;28;20776;-93
2023/07/17 06:48:25;;;;;;;26.05;9.35;;;16.30;99.90;;;;;;4992516;23;20446;-94
2023/07/17 06:51:35;;;;;;;23.40;8.10;;;16.20;99.90;;;;;;4966188;28;20410;-93
2023/07/17 07:09:54;;;;;;;16.83;4.95;;;16.40;99.90;;;;;;5135889;23;20443;-94
2023/07/17 07:13:04;;;;;;;15.13;5.00;;;16.50;99.90;;;;;;5001240;28;20419;-94
2023/07/17 07:15:56;;;;;;;14.60;4.82;;;16.60;99.90;;;;;;4977602;28;20440;-94
2023/07/17 07:18:34;;;;;;;;;;;;;;;;;;;;;
2023/07/17 07:29:01;;;;;;;11.68;3.35;;;16.50;99.90;;;;;;4969135;28;20465;-95
2023/07/17 07:32:00;;;;;;;8.90;2.73;;;16.50;99.90;;;;;;4949412;28;20443;-94
2023/07/17 07:35:10;;;;;;;11.93;2.90;;;16.60;99.90;;;;;;4971829;28;20435;-95
2023/07/17 07:37:40;;;;;;;9.00;2.63;;;16.60;99.90;;;;;;4992827;28;20414;-95
2023/07/17 07:43:47;;;;;;;7.32;2.20;;;17.20;99.90;;;;;;4958655;28;20415;-95
2023/07/17 07:46:45;;;;;;;7.55;2.17;;;17.90;99.90;;;;;;5009904;28;20411;-95
2023/07/17 07:49:44;;;;;;;;;;;;;;;;;;;;;
2023/07/17 07:52:13;;;;;;;6.93;1.88;;;17.80;99.90;;;;;;4940096;29;20975;-93
2023/07/17 07:55:06;;;;;;;;;;;;;;;;;;;;;
2023/07/17 07:57:53;;;;;;;7.03;2.10;;;17.70;99.90;;;;;;4940408;29;20425;-94
2023/07/17 08:00:31;;;;;;;6.10;1.83;;;17.80;99.90;;;;;;4973152;28;21000;-95
2023/07/17 08:02:56;;;;;;;6.28;1.70;;;17.70;99.90;;;;;;4988639;28;20513;-94
2023/07/17 08:05:23;;;;;;;7.53;2.00;;;18.20;99.90;;;;;;5003408;28;20439;-93
2023/07/17 08:08:07;;;;;;;7.25;2.10;;;18.20;99.90;;;;;;5001839;28;20407;-94
2023/07/17 08:10:43;;;;;;;9.43;2.38;;;18.00;99.90;;;;;;5000357;28;20471;-94
2023/07/17 08:13:12;;;;;;;8.85;2.42;;;18.00;99.90;;;;;;4997618;28;20420;-94
2023/07/17 08:15:47;;;;;;;7.18;2.72;;;18.10;99.90;;;;;;5003323;28;20451;-94
2023/07/17 08:18:21;;;;;;;8.10;2.40;;;17.90;99.90;;;;;;5001213;28;20941;-92
2023/07/17 08:20:47;;;;;;;7.05;2.28;;;18.40;99.90;;;;;;4999550;28;20419;-93
2023/07/17 08:23:12;;;;;;;8.23;2.33;;;19.00;99.90;;;;;;5009104;28;20414;-92
2023/07/17 08:25:41;;;;;;;5.68;2.08;;;18.90;99.90;;;;;;4998858;28;20403;-93
2023/07/17 08:28:13;;;;;;;8.02;1.88;;;19.20;99.90;;;;;;5000432;28;20398;-93
2023/07/17 08:30:53;;;;;;;7.03;1.70;;;19.30;99.90;;;;;;5003487;28;20411;-93
2023/07/17 08:33:20;;;;;;;4.97;1.80;;;19.20;99.90;;;;;;4998761;28;20557;-93
2023/07/17 08:35:47;;;;;;;6.75;1.73;;;19.40;99.90;;;;;;4999809;28;20439;-94
2023/07/17 08:38:13;;;;;;;6.45;1.77;;;19.20;99.90;;;;;;4997171;28;20403;-93
2023/07/17 08:40:40;;;;;;;7.73;2.40;;;19.40;99.90;;;;;;4999085;28;20438;-93
2023/07/17 08:43:06;;;;;;;7.25;1.95;;;19.60;99.90;;;;;;4997931;28;20925;-93
2023/07/17 08:45:33;;;;;;;6.85;2.05;;;19.80;99.90;;;;;;4996723;28;20846;-93
2023/07/17 08:48:00;;;;;;;6.40;2.03;;;19.80;99.90;;;;;;4996043;28;20465;-86
2023/07/17 08:50:30;;;;;;;7.55;2.17;;;19.50;99.90;;;;;;5002497;28;20464;-91
2023/07/17 08:52:55;;;;;;;6.40;1.70;;;19.50;99.90;;;;;;5008988;28;20421;-89
2023/07/17 08:55:21;;;;;;;6.55;1.50;;;19.50;99.90;;;;;;5009418;28;20926;-86
2023/07/17 08:57:52;;;;;;;4.40;1.40;;;19.40;99.90;;;;;;4994220;28;20876;-88
2023/07/17 09:00:19;;;;;;;6.03;1.50;;;19.40;99.90;;;;;;5010713;28;20774;-86
2023/07/17 09:02:44;;;;;;;4.32;1.48;;;19.60;99.90;;;;;;5010678;28;20793;-87
2023/07/17 09:05:10;;;;;;;8.20;1.90;;;20.10;99.90;;;;;;4989222;28;20574;-87
2023/07/17 09:07:36;;;;;;;9.48;1.35;;;19.90;99.90;;;;;;5001006;28;20423;-87
2023/07/17 09:10:17;;;;;;;5.28;1.20;;;20.40;99.90;;;;;;5003974;28;20415;-86
2023/07/17 09:12:49;;;;;;;5.13;1.42;;;20.20;99.10;;;;;;4996201;28;20419;-87
2023/07/17 09:15:15;;;;;;;7.18;1.67;;;20.30;99.90;;;;;;4975169;28;20444;-90
2023/07/17 09:17:41;;;;;;;5.85;1.77;;;20.50;99.90;;;;;;4993917;28;20455;-85
2023/07/17 09:20:11;;;;;;;5.63;1.10;;;20.50;99.90;;;;;;4990604;28;20471;-88
2023/07/17 09:22:41;;;;;;;5.03;1.80;;;20.70;99.90;;;;;;4990936;28;20428;-87
2023/07/17 09:25:08;;;;;;;4.97;1.13;;;21.00;99.90;;;;;;4990228;28;20792;-88
2023/07/17 09:27:46;;;;;;;4.15;0.82;;;20.60;94.80;;;;;;4990956;28;20416;-89
2023/07/17 09:30:15;;;;;;;4.82;0.80;;;20.40;92.00;;;;;;4974330;28;20425;-87
2023/07/17 09:32:42;;;;;;;3.67;0.73;;;20.20;94.00;;;;;;5008125;28;20458;-86
2023/07/17 09:35:11;;;;;;;5.78;1.27;;;20.10;98.60;;;;;;4974075;28;20444;-88
2023/07/17 09:37:37;;;;;;;5.33;1.00;;;20.20;95.70;;;;;;4990273;28;20416;-87
2023/07/17 09:40:07;;;;;;;4.82;0.82;;;20.40;96.30;;;;;;4991014;28;20482;-91
2023/07/17 09:42:35;;;;;;;4.65;0.95;;;20.60;94.40;;;;;;5006644;28;20488;-87
2023/07/17 09:45:02;;;;;;;4.38;1.02;;;20.70;99.60;;;;;;4990585;28;20927;-88
2023/07/17 09:47:29;;;;;;;6.80;1.10;;;20.60;92.90;;;;;;4988759;28;20458;-91
2023/07/17 09:49:54;;;;;;;7.37;1.37;;;20.60;94.00;;;;;;4974295;28;20555;-89
2023/07/17 09:52:20;;;;;;;5.72;1.05;;;20.30;94.00;;;;;;4990319;28;20496;-89
2023/07/17 09:54:55;;;;;;;6.15;1.30;;;20.10;90.90;;;;;;4990002;28;20918;-89
2023/07/17 09:57:34;;;;;;;5.57;0.80;;;20.00;94.80;;;;;;4973763;28;20412;-87
2023/07/17 10:00:05;;;;;;;4.50;0.75;;;20.20;97.20;;;;;;4989418;28;20409;-85
2023/07/17 10:02:35;;;;;;;6.63;1.00;;;20.10;92.90;;;;;;4974379;28;20495;-88
2023/07/17 10:05:05;;;;;;;5.03;0.90;;;20.20;90.90;;;;;;5006528;28;20934;-87
2023/07/17 10:07:36;;;;;;;5.57;1.00;;;20.20;93.90;;;;;;4989723;28;20420;-89
2023/07/17 10:10:03;;;;;;;3.80;1.00;;;20.50;96.20;;;;;;4973650;28;20413;-87
2023/07/17 10:12:29;;;;;;;5.60;1.10;;;21.30;94.90;;;;;;5007124;28;20503;-90
2023/07/17 10:14:57;;;;;;;4.78;1.40;;;21.30;94.80;;;;;;4990120;28;21013;-88
2023/07/17 10:17:30;;;;;;;4.43;1.10;;;21.70;92.50;;;;;;4989243;28;21038;-87
2023/07/17 10:20:10;;;;;;;5.93;1.43;;;21.60;85.30;;;;;;5007762;28;20781;-89
2023/07/17 10:22:43;;;;;;;6.53;1.27;;;22.00;88.60;;;;;;4989577;28;21056;-85
2023/07/17 10:25:17;;;;;;;4.88;1.23;;;22.40;89.70;;;;;;5006978;28;20405;-87
2023/07/17 10:27:51;;;;;;;5.13;1.27;;;22.60;72.60;;;;;;4989807;28;20784;-88
2023/07/17 10:30:36;;;;;;;6.15;1.40;;;22.80;74.90;;;;;;4972533;28;20523;-87
2023/07/17 10:33:05;;;;;;;5.87;1.40;;;22.50;72.70;;;;;;4989750;28;20417;-87
2023/07/17 10:35:56;;;;;;;4.47;1.23;;;22.70;80.30;;;;;;4972960;28;20443;-89
2023/07/17 10:38:34;;;;;;;6.93;1.67;;;23.20;91.70;;;;;;4988864;28;20425;-89
2023/07/17 10:41:11;;;;;;;4.50;1.20;;;23.50;72.80;;;;;;4989520;28;20456;-86
2023/07/17 10:43:48;;;;;;;5.72;1.48;;;23.20;64.30;;;;;;4988443;28;20429;-86
2023/07/17 10:46:14;;;;;;;5.25;1.40;;;22.70;64.00;;;;;;4989085;28;20479;-90
2023/07/17 10:48:40;;;;;;;3.35;1.25;;;22.10;69.90;;;;;;4972978;28;20912;-86
2023/07/17 10:51:06;;;;;;;5.28;1.40;;;21.80;68.90;;;;;;4988635;28;20424;-90
2023/07/17 10:53:31;;;;;;;5.50;1.60;;;21.80;84.90;;;;;;4973035;28;20413;-87
2023/07/17 10:55:57;;;;;;;4.82;1.30;;;22.00;80.60;;;;;;4971985;28;20521;-87
2023/07/17 10:58:23;;;;;;;6.20;1.70;;;22.20;76.20;;;;;;4993438;28;20454;-85
2023/07/17 11:00:50;;;;;;;3.13;1.10;;;22.70;75.90;;;;;;4989935;28;20461;-86
2023/07/17 11:03:17;;;;;;;6.20;1.47;;;22.70;73.10;;;;;;4972430;28;20928;-90
2023/07/17 11:05:44;;;;;;;6.20;1.43;;;23.20;77.40;;;;;;4981308;28;22223;-87
2023/07/17 11:08:14;;;;;;;4.18;1.48;;;23.10;69.60;;;;;;4991313;28;20454;-85
2023/07/17 11:10:43;;;;;;;5.80;1.55;;;23.70;64.00;;;;;;5008793;28;20415;-92
2023/07/17 11:13:09;;;;;;;4.20;1.25;;;23.40;69.70;;;;;;4991627;28;20487;-88
2023/07/17 11:15:37;;;;;;;4.78;1.30;;;23.60;66.40;;;;;;4992206;28;20887;-90
2023/07/17 11:18:04;;;;;;;6.30;1.77;;;23.70;71.10;;;;;;4990776;28;20460;-89
2023/07/17 11:20:31;;;;;;;5.10;1.77;;;23.90;67.80;;;;;;4992414;28;20407;-86
2023/07/17 11:22:58;;;;;;;5.22;1.15;;;24.10;69.60;;;;;;5007395;28;20403;-87
2023/07/17 11:25:32;;;;;;;3.78;1.10;;;24.40;61.50;;;;;;5008178;28;20422;-87
2023/07/17 11:28:00;;;;;;;3.95;0.82;;;24.40;62.10;;;;;;5008461;28;20411;-87
2023/07/17 11:30:32;;;;;;;2.70;0.82;;;24.30;60.00;;;;;;5007637;28;20411;-91
2023/07/17 11:32:57;;;;;;;4.47;1.10;;;24.70;59.50;;;;;;4992772;28;20426;-88
2023/07/17 11:35:40;;;;;;;3.78;0.82;;;24.70;56.10;;;;;;4990966;28;20434;-89
2023/07/17 11:38:07;;;;;;;4.38;1.02;;;24.40;53.40;;;;;;5008376;28;20977;-87
2023/07/17 11:40:33;;;;;;;5.00;1.20;;;23.90;55.10;;;;;;5008056;28;20581;-87
2023/07/17 11:43:03;;;;;;;4.73;0.87;;;23.30;59.40;;;;;;5007378;28;20475;-88
2023/07/17 11:45:30;;;;;;;4.95;1.25;;;22.70;61.50;;;;;;4992234;28;20434;-87
2023/07/17 11:47:57;;;;;;;6.20;1.27;;;22.60;69.50;;;;;;4990755;28;20404;-87
2023/07/17 11:50:25;;;;;;;6.60;1.60;;;22.20;73.20;;;;;;5026087;28;20814;-88
2023/07/17 11:53:12;;;;;;;5.63;1.67;;;21.90;77.40;;;;;;5007002;28;20415;-88
2023/07/17 11:55:40;;;;;;;5.53;1.60;;;22.20;91.70;;;;;;5007556;28;20458;-89
2023/07/17 11:58:29;;;;;;;6.18;1.50;;;23.00;88.10;;;;;;5008615;28;20870;-88
2023/07/17 12:00:55;;;;;;;5.53;1.30;;;23.20;70.00;;;;;;4991547;28;20770;-85
2023/07/17 12:03:22;;;;;;;5.97;1.48;;;23.10;71.10;;;;;;4992197;28;20433;-88
2023/07/17 12:05:48;;;;;;;5.13;1.63;;;23.20;70.40;;;;;;5007489;28;20411;-89
2023/07/17 12:08:14;;;;;;;4.00;1.38;;;23.70;90.10;;;;;;5008471;28;20932;-87
2023/07/17 12:10:40;;;;;;;3.60;1.23;;;24.40;72.80;;;;;;4991475;28;20423;-87
2023/07/17 12:13:06;;;;;;;3.50;1.02;;;25.00;65.00;;;;;;5007678;28;20442;-93
2023/07/17 12:15:32;;;;;;;4.18;1.00;;;25.30;56.50;;;;;;4992685;28;20549;-87
2023/07/17 12:17:58;;;;;;;4.20;1.38;;;25.40;50.10;;;;;;5007898;28;20981;-86
2023/07/17 12:20:25;;;;;;;4.97;1.17;;;25.00;49.50;;;;;;5008341;28;20415;-89
2023/07/17 12:22:54;;;;;;;4.57;1.17;;;25.10;53.00;;;;;;5007074;28;20413;-87
2023/07/17 12:25:19;;;;;;;4.63;1.33;;;25.40;54.40;;;;;;4992154;28;20453;-90
2023/07/17 12:27:46;;;;;;;4.50;1.38;;;25.60;53.00;;;;;;4991369;28;20419;-88
2023/07/17 12:30:13;;;;;;;3.63;1.33;;;25.80;54.00;;;;;;5011535;28;20435;-88
2023/07/17 12:32:40;;;;;;;3.88;1.33;;;25.90;50.30;;;;;;5028929;28;20408;-87
2023/07/17 12:35:06;;;;;;;5.25;1.48;;;25.60;47.30;;;;;;5028719;28;20473;-89
2023/07/17 12:37:33;;;;;;;5.40;1.60;;;25.70;51.30;;;;;;5011461;28;20411;-88
2023/07/17 12:39:59;;;;;;;4.25;1.40;;;25.80;50.90;;;;;;5010155;28;20490;-88
2023/07/17 12:42:25;;;;;;;2.85;0.95;;;25.90;50.00;;;;;;5011643;28;20483;-90
2023/07/17 12:44:51;;;;;;;4.00;1.13;;;26.20;50.40;;;;;;5010202;28;20455;-89
2023/07/17 12:47:17;;;;;;;5.43;1.30;;;26.30;48.60;;;;;;5011683;28;20976;-88
2023/07/17 12:49:43;;;;;;;2.95;0.90;;;26.40;48.60;;;;;;4994755;28;20403;-91
2023/07/17 12:52:09;;;;;;;4.38;1.00;;;26.00;48.50;;;;;;5010968;28;20416;-88
2023/07/17 12:54:34;;;;;;;3.45;1.05;;;25.70;47.50;;;;;;4995044;28;20531;-89
2023/07/17 12:57:00;;;;;;;4.03;1.25;;;25.50;48.90;;;;;;4994744;28;20461;-88
2023/07/17 12:59:26;;;;;;;4.10;1.20;;;25.10;48.80;;;;;;4995647;28;20451;-88
2023/07/17 13:01:53;;;;;;;4.88;1.23;;;25.00;50.30;;;;;;5010135;28;20498;-87
2023/07/17 13:04:19;;;;;;;3.85;1.00;;;25.30;50.80;;;;;;5011410;28;20407;-87
2023/07/17 13:06:45;;;;;;;4.53;1.02;;;25.40;53.20;;;;;;5009764;28;20411;-88
2023/07/17 13:09:11;;;;;;;3.67;0.90;;;25.90;49.70;;;;;;4994215;28;20484;-90
2023/07/17 13:11:37;;;;;;;3.40;1.00;;;26.30;50.50;;;;;;5010821;28;20412;-87
2023/07/17 13:14:05;;;;;;;3.13;0.90;;;26.40;48.40;;;;;;5009939;28;20415;-91
2023/07/17 13:16:32;;;;;;;4.55;1.20;;;26.70;46.30;;;;;;4994350;28;20410;-88
2023/07/17 13:18:57;;;;;;;3.88;0.93;;;26.40;48.00;;;;;;5009567;28;20462;-90
2023/07/17 13:21:23;;;;;;;3.90;1.00;;;26.10;48.30;;;;;;4994651;28;20400;-86
2023/07/17 13:23:49;;;;;;;4.57;0.97;;;26.00;50.00;;;;;;4993579;28;20415;-89
2023/07/17 13:26:17;;;;;;;4.82;1.17;;;26.30;50.70;;;;;;5028584;28;20916;-90
2023/07/17 13:28:43;;;;;;;4.88;1.27;;;26.30;49.00;;;;;;4993662;28;20403;-86